Atmore, Alabama
Current Conditions -  °F | °C
As of 6:56 AM on Friday 31 Oct 2014 (Local Time) from KNSE Reporting Station
Clear Clear  
Wind Chill:   Ceiling: Unl
Heat Index:   Visibility: 10mi
Dew Point:   Wind: 5mph
Humidity: 89%   Direction: 320°NW
Pressure: 30"   Gusts: NA
Location:  31.03°N, 87.49°W
Report Text: KNSE 311156Z 32004KT 10SM CLR 06/04 A3000 RMK AO2 SLP146 T00610044 10094 20061 52003 $
Loading
Personal Weather Stations






























Interactive Weather Map
Tropical Storm Tracking
New forecast layout! Learn more

10-Day Weather Forecast

Advertisements
Track Severe Weather on mobile